createdAt,value
2018-10-18T00:02:12.764Z,11.73
2018-10-18T00:04:44.720Z,12.83
2018-10-18T00:07:15.189Z,12.70
2018-10-18T00:09:45.509Z,12.20
2018-10-18T00:12:16.697Z,11.00
2018-10-18T00:14:46.889Z,11.50
2018-10-18T00:17:22.205Z,15.17
2018-10-18T00:19:52.542Z,25.57
2018-10-18T00:22:23.463Z,24.20
2018-10-18T00:24:53.622Z,18.50
2018-10-18T00:27:23.802Z,18.60
2018-10-18T00:29:53.900Z,17.43
2018-10-18T00:32:24.285Z,17.37
2018-10-18T00:34:59.662Z,17.97
2018-10-18T00:37:29.773Z,14.83
2018-10-18T00:39:59.880Z,16.93
2018-10-18T00:42:40.038Z,17.10
2018-10-18T00:45:11.032Z,17.57
2018-10-18T00:47:42.052Z,17.50
2018-10-18T00:50:13.142Z,16.40
2018-10-18T00:52:43.420Z,19.10
2018-10-18T00:55:14.526Z,20.70
2018-10-18T00:57:44.884Z,17.80
2018-10-18T01:00:15.072Z,18.67
2018-10-18T01:02:45.044Z,18.97
2018-10-18T01:05:15.972Z,18.83
2018-10-18T01:07:46.217Z,19.00
2018-10-18T01:10:16.258Z,17.63
2018-10-18T01:12:47.248Z,16.53
2018-10-18T01:15:17.670Z,20.03
2018-10-18T01:17:47.647Z,19.10
2018-10-18T01:20:18.665Z,17.07
2018-10-18T01:22:49.291Z,16.53
2018-10-18T01:25:19.417Z,14.90
2018-10-18T01:27:49.546Z,13.20
2018-10-18T01:30:20.625Z,13.43
2018-10-18T01:32:50.778Z,14.50
2018-10-18T01:35:21.902Z,14.83
2018-10-18T01:37:52.230Z,14.10
2018-10-18T01:40:22.767Z,15.77
2018-10-18T01:42:53.981Z,16.07
2018-10-18T01:45:24.043Z,16.50
2018-10-18T01:47:54.462Z,18.10
2018-10-18T01:50:24.560Z,20.27
2018-10-18T01:52:55.343Z,19.33
2018-10-18T01:55:25.587Z,20.37
2018-10-18T01:57:56.097Z,20.60
2018-10-18T02:00:26.646Z,20.30
2018-10-18T02:02:57.630Z,20.67
2018-10-18T02:05:27.892Z,19.07
2018-10-18T02:07:58.072Z,19.97
2018-10-18T02:10:28.097Z,19.33
2018-10-18T02:12:58.180Z,18.77
2018-10-18T02:15:28.688Z,19.40
2018-10-18T02:17:59.297Z,19.97
2018-10-18T02:20:29.312Z,21.23
2018-10-18T02:22:59.964Z,20.33
2018-10-18T02:25:30.334Z,21.23
2018-10-18T02:28:00.586Z,21.33
2018-10-18T02:30:30.502Z,21.73
2018-10-18T02:33:00.744Z,23.60
2018-10-18T02:35:31.060Z,24.20
2018-10-18T02:38:01.800Z,25.33
2018-10-18T02:40:31.801Z,24.87
2018-10-18T02:43:01.932Z,24.93
2018-10-18T02:45:32.440Z,25.33
2018-10-18T02:48:02.655Z,26.50
2018-10-18T02:50:32.630Z,25.33
2018-10-18T02:53:04.008Z,26.30
2018-10-18T02:55:34.206Z,27.13
2018-10-18T02:58:05.137Z,24.93
2018-10-18T03:00:36.534Z,26.30
2018-10-18T03:03:06.720Z,27.07
2018-10-18T03:05:37.044Z,26.10
2018-10-18T03:08:07.134Z,27.70
2018-10-18T03:10:37.138Z,26.13
2018-10-18T03:13:07.454Z,23.97
2018-10-18T03:15:38.150Z,25.23
2018-10-18T03:18:08.560Z,24.53
2018-10-18T03:20:39.826Z,25.43
2018-10-18T03:23:10.466Z,24.23
2018-10-18T03:25:40.894Z,24.17
2018-10-18T03:28:11.894Z,26.73
2018-10-18T03:30:42.104Z,23.90
2018-10-18T03:33:12.228Z,25.63
2018-10-18T03:35:42.479Z,21.60
2018-10-18T03:38:13.287Z,21.57
2018-10-18T03:40:43.349Z,21.43
2018-10-18T03:43:13.859Z,25.17
2018-10-18T03:45:43.946Z,29.33
2018-10-18T03:48:14.143Z,36.70
2018-10-18T03:50:44.693Z,33.00
2018-10-18T03:53:15.300Z,35.17
2018-10-18T03:55:45.542Z,32.93
2018-10-18T03:58:15.627Z,31.73
2018-10-18T04:00:46.144Z,33.63
2018-10-18T04:03:16.476Z,31.23
2018-10-18T04:05:47.115Z,31.70
2018-10-18T04:08:17.737Z,32.60
2018-10-18T04:10:48.043Z,34.63
2018-10-18T04:13:18.464Z,36.67
2018-10-18T04:15:48.649Z,37.63
2018-10-18T04:18:18.975Z,39.73
2018-10-18T04:20:49.055Z,38.43
2018-10-18T04:23:24.249Z,38.43
2018-10-18T04:25:54.517Z,34.53
2018-10-18T04:28:24.701Z,35.87
2018-10-18T04:30:55.101Z,36.10
2018-10-18T04:33:25.517Z,32.37
2018-10-18T04:35:56.546Z,30.93
2018-10-18T04:38:28.023Z,30.33
2018-10-18T04:40:58.302Z,29.30
2018-10-18T04:43:29.424Z,27.27
2018-10-18T04:45:59.696Z,25.50
2018-10-18T04:48:29.986Z,26.47
2018-10-18T04:51:01.152Z,26.47
2018-10-18T04:53:31.358Z,28.50
2018-10-18T04:56:01.940Z,26.80
2018-10-18T04:58:32.228Z,25.00
2018-10-18T05:01:02.662Z,25.27
2018-10-18T05:03:33.894Z,24.77
2018-10-18T05:06:05.481Z,24.63
2018-10-18T05:08:36.063Z,22.10
2018-10-18T05:11:06.895Z,23.30
2018-10-18T05:13:38.009Z,23.30
2018-10-18T05:16:08.322Z,25.60
2018-10-18T05:18:39.222Z,23.57
2018-10-18T05:21:09.268Z,25.67
2018-10-18T05:23:39.878Z,25.60
2018-10-18T05:26:10.145Z,25.73
2018-10-18T05:28:41.125Z,26.07
2018-10-18T05:31:11.206Z,24.80
2018-10-18T05:33:42.113Z,24.77
2018-10-18T05:36:12.750Z,25.03
2018-10-18T05:38:43.244Z,25.00
2018-10-18T05:41:14.673Z,27.73
2018-10-18T05:43:45.136Z,30.87
2018-10-18T05:46:15.255Z,33.23
2018-10-18T05:48:46.257Z,36.93
2018-10-18T05:51:17.561Z,36.93
2018-10-18T05:53:49.140Z,36.53
2018-10-18T05:56:20.851Z,37.40
2018-10-18T05:58:52.147Z,36.40
2018-10-18T06:01:24.144Z,34.83
2018-10-18T06:03:55.753Z,35.20
2018-10-18T06:06:26.287Z,33.97
2018-10-18T06:08:58.013Z,34.40
2018-10-18T06:11:30.529Z,35.03
2018-10-18T06:14:00.665Z,35.67
2018-10-18T06:16:31.345Z,36.80
2018-10-18T06:19:02.313Z,37.83
2018-10-18T06:21:32.609Z,39.40
2018-10-18T06:24:02.981Z,37.77
2018-10-18T06:26:33.055Z,38.27
2018-10-18T06:29:03.758Z,38.03
2018-10-18T06:31:34.241Z,37.17
2018-10-18T06:34:04.611Z,39.70
2018-10-18T06:36:35.007Z,39.00
2018-10-18T06:39:08.862Z,37.13
2018-10-18T06:41:41.078Z,35.27
2018-10-18T06:44:11.687Z,35.07
2018-10-18T06:46:41.906Z,34.73
2018-10-18T06:49:12.891Z,33.07
2018-10-18T06:51:43.052Z,29.27
2018-10-18T06:54:13.607Z,29.43
2018-10-18T06:56:44.076Z,26.07
2018-10-18T06:59:14.272Z,25.43
2018-10-18T07:01:45.938Z,25.33
2018-10-18T07:04:17.040Z,23.87
2018-10-18T07:06:47.316Z,25.03
2018-10-18T07:09:17.584Z,23.70
2018-10-18T07:11:48.962Z,22.00
2018-10-18T07:14:20.658Z,21.40
2018-10-18T07:16:50.930Z,21.77
2018-10-18T07:19:22.046Z,20.63
2018-10-18T07:21:52.599Z,20.10
2018-10-18T07:24:23.355Z,18.17
2018-10-18T07:26:54.509Z,14.83
2018-10-18T07:29:25.197Z,13.03
2018-10-18T07:31:55.427Z,10.83
2018-10-18T07:34:26.010Z,10.37
2018-10-18T07:36:56.372Z,9.50
2018-10-18T07:39:26.695Z,8.83
2018-10-18T07:41:57.279Z,6.50
2018-10-18T07:44:27.554Z,5.97
2018-10-18T07:46:58.349Z,5.10
2018-10-18T07:49:28.557Z,4.57
2018-10-18T07:51:59.865Z,3.37
2018-10-18T07:54:30.353Z,3.73
2018-10-18T07:57:00.719Z,4.13
2018-10-18T07:59:30.991Z,3.33
2018-10-18T08:02:01.758Z,3.00
2018-10-18T08:04:32.699Z,3.17
2018-10-18T08:07:02.813Z,3.17
2018-10-18T08:09:32.995Z,3.70
2018-10-18T08:12:03.387Z,3.33
2018-10-18T08:14:33.893Z,3.17
2018-10-18T08:17:04.360Z,3.20
2018-10-18T08:19:34.413Z,3.20
2018-10-18T08:22:04.751Z,3.97
2018-10-18T08:24:35.172Z,3.30
2018-10-18T08:27:05.897Z,3.87
2018-10-18T08:29:36.231Z,3.07
2018-10-18T08:32:07.348Z,3.10
2018-10-18T08:34:37.873Z,3.07
2018-10-18T08:37:08.603Z,3.10
2018-10-18T08:39:39.171Z,3.13
2018-10-18T08:42:10.287Z,3.43
2018-10-18T08:44:40.591Z,4.00
2018-10-18T08:47:11.267Z,4.23
2018-10-18T08:49:41.780Z,3.10
2018-10-18T08:52:12.140Z,3.53
2018-10-18T08:54:42.512Z,3.60
2018-10-18T08:57:13.506Z,3.50
2018-10-18T08:59:44.275Z,3.70
2018-10-18T09:02:14.948Z,3.70
2018-10-18T09:04:45.435Z,3.50
2018-10-18T09:07:15.661Z,3.40
2018-10-18T09:09:46.252Z,3.70
2018-10-18T09:12:16.866Z,3.40
2018-10-18T09:14:47.296Z,3.77
2018-10-18T09:17:18.348Z,3.40
2018-10-18T09:19:49.262Z,3.03
2018-10-18T09:22:21.065Z,3.97
2018-10-18T09:24:52.111Z,3.13
2018-10-18T09:27:22.287Z,3.50
2018-10-18T09:29:54.004Z,3.83
2018-10-18T09:32:24.702Z,3.30
2018-10-18T09:34:55.151Z,2.97
2018-10-18T09:37:25.852Z,3.37
2018-10-18T09:39:56.715Z,3.40
2018-10-18T09:42:27.065Z,3.20
2018-10-18T09:44:57.785Z,3.10
2018-10-18T09:47:28.414Z,3.07
2018-10-18T09:49:59.011Z,3.80
2018-10-18T09:52:30.405Z,3.47
2018-10-18T09:55:01.122Z,3.30
2018-10-18T09:57:31.785Z,4.23
2018-10-18T10:00:02.630Z,3.67
2018-10-18T10:02:37.336Z,3.57
2018-10-18T10:05:08.147Z,3.40
2018-10-18T10:07:38.966Z,3.27
2018-10-18T10:10:09.911Z,3.33
2018-10-18T10:12:40.479Z,3.87
2018-10-18T10:15:10.824Z,3.60
2018-10-18T10:17:43.385Z,3.60
2018-10-18T10:20:13.676Z,3.03
2018-10-18T10:22:43.830Z,3.43
2018-10-18T10:25:14.246Z,3.20
2018-10-18T10:27:45.317Z,3.53
2018-10-18T10:30:15.975Z,3.13
2018-10-18T10:32:46.756Z,3.80
2018-10-18T10:35:17.258Z,3.17
2018-10-18T10:37:47.720Z,2.97
2018-10-18T10:40:18.342Z,3.20
2018-10-18T10:42:49.468Z,2.77
2018-10-18T10:45:21.078Z,3.03
2018-10-18T10:47:52.196Z,3.73
2018-10-18T10:50:22.608Z,3.70
2018-10-18T10:52:52.860Z,2.97
2018-10-18T10:55:24.249Z,3.37
2018-10-18T10:57:54.866Z,3.30
2018-10-18T11:00:35.802Z,3.20
2018-10-18T11:03:06.189Z,3.13
2018-10-18T11:05:37.279Z,3.33
2018-10-18T11:08:07.553Z,3.40
2018-10-18T11:10:37.943Z,3.33
2018-10-18T11:13:08.298Z,3.50
2018-10-18T11:15:39.153Z,3.63
2018-10-18T11:18:09.833Z,2.67
2018-10-18T11:20:40.874Z,2.90
2018-10-18T11:23:11.546Z,9.40
2018-10-18T11:25:42.000Z,3.37
2018-10-18T11:28:13.648Z,2.97
2018-10-18T11:30:45.050Z,2.80
2018-10-18T11:33:16.961Z,2.83
2018-10-18T11:35:48.294Z,3.00
2018-10-18T11:38:18.919Z,2.77
2018-10-18T11:40:49.454Z,2.60
2018-10-18T11:43:21.135Z,7.17
2018-10-18T11:45:51.494Z,2.83
2018-10-18T11:48:21.785Z,2.90
2018-10-18T11:50:51.984Z,2.57
2018-10-18T11:53:23.018Z,2.83
2018-10-18T11:55:53.116Z,2.37
2018-10-18T11:58:23.593Z,2.93
2018-10-18T12:00:54.290Z,2.67
2018-10-18T12:03:24.339Z,2.80
2018-10-18T12:05:54.718Z,3.03
2018-10-18T12:08:25.095Z,2.90
2018-10-18T12:10:56.183Z,2.80
2018-10-18T12:13:26.577Z,2.53
2018-10-18T12:15:56.915Z,2.73
2018-10-18T12:18:27.411Z,2.20
2018-10-18T12:20:59.521Z,2.87
2018-10-18T12:23:30.202Z,2.97
2018-10-18T12:26:00.710Z,2.90
2018-10-18T12:28:31.397Z,2.87
2018-10-18T12:31:02.241Z,2.20
2018-10-18T12:33:32.719Z,2.40
2018-10-18T12:36:03.087Z,2.97
2018-10-18T12:38:33.932Z,2.80
2018-10-18T12:41:04.226Z,2.43
2018-10-18T12:43:35.484Z,2.40
2018-10-18T12:46:06.588Z,2.80
2018-10-18T12:48:37.090Z,2.80
2018-10-18T12:51:08.594Z,2.60
2018-10-18T12:53:39.054Z,2.50
2018-10-18T12:56:09.505Z,2.77
2018-10-18T12:58:39.912Z,3.57
2018-10-18T13:01:10.100Z,3.80
2018-10-18T13:03:40.643Z,3.70
2018-10-18T13:06:10.895Z,3.80
2018-10-18T13:08:41.629Z,4.57
2018-10-18T13:11:12.118Z,3.80
2018-10-18T13:13:42.621Z,2.83
2018-10-18T13:16:13.198Z,2.70
2018-10-18T13:18:43.556Z,2.57
2018-10-18T13:21:14.180Z,2.80
2018-10-18T13:23:45.110Z,2.83
2018-10-18T13:26:15.978Z,2.80
2018-10-18T13:28:46.926Z,3.07
2018-10-18T13:31:17.790Z,2.87
2018-10-18T13:33:48.355Z,2.70
2018-10-18T13:36:18.957Z,2.53
2018-10-18T13:38:49.278Z,3.43
2018-10-18T13:41:19.882Z,2.47
2018-10-18T13:43:50.144Z,2.87
2018-10-18T13:46:21.049Z,2.60
2018-10-18T13:48:53.008Z,2.77
2018-10-18T13:51:24.724Z,2.60
2018-10-18T13:53:56.420Z,2.37
2018-10-18T13:56:26.597Z,2.30
2018-10-18T13:58:57.773Z,2.10
2018-10-18T14:01:28.605Z,2.00
2018-10-18T14:03:58.967Z,3.13
2018-10-18T14:06:29.145Z,2.23
2018-10-18T14:08:59.420Z,2.90
2018-10-18T14:11:29.659Z,3.00
2018-10-18T14:14:00.215Z,2.60
2018-10-18T14:16:31.361Z,2.53
2018-10-18T14:19:01.718Z,2.37
2018-10-18T14:21:33.232Z,2.33
2018-10-18T14:24:03.880Z,2.30
2018-10-18T14:26:34.655Z,2.47
2018-10-18T14:45:30.959Z,5.83
2018-10-18T14:48:01.228Z,4.33
2018-10-18T14:50:31.561Z,5.03
2018-10-18T14:53:11.865Z,3.47
2018-10-18T14:55:43.381Z,3.33
2018-10-18T14:58:14.139Z,2.93
2018-10-18T15:00:45.323Z,3.73
2018-10-18T15:03:16.407Z,5.00
2018-10-18T15:05:47.383Z,3.57
2018-10-18T15:08:18.144Z,3.37
2018-10-18T15:10:48.875Z,3.00
2018-10-18T15:13:19.496Z,3.77
2018-10-18T15:15:51.458Z,4.13
2018-10-18T15:18:22.625Z,2.87
2018-10-18T15:20:53.338Z,2.57
2018-10-18T15:23:26.568Z,2.73
2018-10-18T15:25:57.217Z,2.40
2018-10-18T15:28:27.429Z,2.43
2018-10-18T15:30:59.132Z,1.97
2018-10-18T15:33:29.427Z,2.10
2018-10-18T15:36:00.665Z,2.00
2018-10-18T15:38:32.499Z,3.00
2018-10-18T15:41:03.061Z,2.57
2018-10-18T15:43:34.594Z,2.53
2018-10-18T15:46:05.153Z,2.57
2018-10-18T15:48:35.203Z,2.60
2018-10-18T15:51:05.592Z,2.10
2018-10-18T15:53:36.100Z,3.90
2018-10-18T15:56:06.262Z,2.20
2018-10-18T15:58:38.029Z,2.40
2018-10-18T16:01:08.325Z,3.13
2018-10-18T16:03:41.409Z,3.00
2018-10-18T16:06:12.124Z,2.80
2018-10-18T16:08:42.465Z,3.40
2018-10-18T16:11:14.042Z,4.03
2018-10-18T16:13:44.041Z,2.90
2018-10-18T16:16:14.514Z,3.13
2018-10-18T16:18:46.432Z,2.60
2018-10-18T16:21:17.104Z,2.60
2018-10-18T16:23:48.696Z,2.10
2018-10-18T16:26:19.108Z,2.30
2018-10-18T16:28:49.288Z,1.83
2018-10-18T16:31:20.404Z,1.90
2018-10-18T16:33:53.267Z,1.63
2018-10-18T16:36:24.471Z,1.83
2018-10-18T16:38:55.030Z,2.40
2018-10-18T16:41:25.549Z,2.70
2018-10-18T16:43:55.686Z,1.93
2018-10-18T16:46:27.047Z,1.90
2018-10-18T16:48:57.438Z,2.10
2018-10-18T16:51:27.521Z,2.10
2018-10-18T16:53:58.603Z,2.43
2018-10-18T16:56:29.233Z,2.07
2018-10-18T16:58:59.574Z,1.93
2018-10-18T17:01:30.816Z,2.00
2018-10-18T17:04:00.959Z,2.27
2018-10-18T17:06:31.478Z,1.80
2018-10-18T17:09:02.467Z,1.90
2018-10-18T17:11:34.280Z,2.13
2018-10-18T17:14:06.805Z,1.93
2018-10-18T17:16:37.955Z,1.90
2018-10-18T17:19:08.339Z,2.30
2018-10-18T17:21:44.377Z,2.60
2018-10-18T17:24:15.226Z,1.90
2018-10-18T17:26:48.153Z,2.60
2018-10-18T17:29:19.305Z,3.80
2018-10-18T17:31:49.908Z,3.10
2018-10-18T17:34:20.336Z,4.03
2018-10-18T17:36:51.498Z,3.90
2018-10-18T17:39:21.933Z,2.10
2018-10-18T17:41:52.943Z,2.00
2018-10-18T17:44:25.342Z,2.10
2018-10-18T17:46:56.685Z,1.80
2018-10-18T17:49:27.960Z,1.70
2018-10-18T17:51:58.413Z,2.10
2018-10-18T17:54:28.608Z,1.63
2018-10-18T17:56:58.739Z,1.80
2018-10-18T17:59:29.223Z,1.77
2018-10-18T18:01:59.708Z,1.50
2018-10-18T18:04:30.211Z,2.20
2018-10-18T18:07:00.471Z,1.90
2018-10-18T18:09:31.361Z,1.70
2018-10-18T18:12:01.601Z,1.60
2018-10-18T18:14:31.587Z,1.47
2018-10-18T18:17:01.729Z,1.83
2018-10-18T18:19:33.371Z,1.43
2018-10-18T18:22:03.903Z,1.70
2018-10-18T18:24:34.850Z,1.40
2018-10-18T18:27:05.478Z,1.53
2018-10-18T18:29:35.428Z,1.70
2018-10-18T18:32:05.801Z,1.60
2018-10-18T18:34:36.040Z,1.60
2018-10-18T18:37:06.344Z,1.77
2018-10-18T18:39:37.327Z,1.77
2018-10-18T18:42:08.195Z,2.07
2018-10-18T18:44:38.376Z,1.53
2018-10-18T18:47:08.795Z,2.20
2018-10-18T18:49:38.811Z,1.77
2018-10-18T18:52:09.236Z,1.87
2018-10-18T18:54:39.411Z,1.77
2018-10-18T18:57:09.760Z,1.87
2018-10-18T18:59:40.430Z,2.03
2018-10-18T19:02:11.104Z,1.80
2018-10-18T19:04:43.237Z,1.70
2018-10-18T19:07:14.749Z,1.70
2018-10-18T19:09:45.811Z,1.87
2018-10-18T19:12:16.183Z,1.67
2018-10-18T19:14:47.143Z,1.57
2018-10-18T19:17:18.193Z,1.60
2018-10-18T19:19:49.023Z,2.07
2018-10-18T19:22:20.267Z,1.40
2018-10-18T19:24:50.530Z,1.90
2018-10-18T19:27:26.565Z,1.73
2018-10-18T19:30:05.878Z,1.80
2018-10-18T19:32:45.309Z,1.60
2018-10-18T19:35:17.168Z,1.97
2018-10-18T19:37:47.605Z,2.03
2018-10-18T19:40:18.355Z,2.23
2018-10-18T19:42:48.597Z,2.10
2018-10-18T19:45:18.567Z,1.57
2018-10-18T19:47:49.944Z,1.70
2018-10-18T19:50:22.230Z,1.67
2018-10-18T19:52:54.925Z,1.87
2018-10-18T19:55:25.880Z,1.80
2018-10-18T19:57:57.486Z,1.67
2018-10-18T20:00:28.630Z,1.70
2018-10-18T20:03:00.610Z,1.97
2018-10-18T20:05:32.352Z,1.90
2018-10-18T20:08:04.118Z,1.67
2018-10-18T20:10:34.779Z,2.03
2018-10-18T20:13:06.899Z,1.83
2018-10-18T20:15:39.024Z,2.00
2018-10-18T20:18:09.412Z,2.10
2018-10-18T20:20:39.690Z,1.80
2018-10-18T20:23:10.227Z,2.00
2018-10-18T20:25:40.900Z,2.07
2018-10-18T20:28:12.070Z,1.80
2018-10-18T20:30:42.471Z,1.90
2018-10-18T20:33:19.824Z,2.17
2018-10-18T20:35:55.586Z,2.00
2018-10-18T20:38:34.542Z,1.77
2018-10-18T20:41:06.925Z,1.80
2018-10-18T20:43:37.842Z,1.93
2018-10-18T20:46:08.255Z,2.10
2018-10-18T20:48:38.605Z,1.93
2018-10-18T20:51:08.911Z,1.80
2018-10-18T20:53:39.086Z,1.87
2018-10-18T20:56:09.168Z,1.97
2018-10-18T20:58:39.521Z,2.10
2018-10-18T21:01:09.868Z,2.43
2018-10-18T21:03:41.170Z,1.77
2018-10-18T21:06:11.585Z,1.87
2018-10-18T21:08:41.858Z,1.97
2018-10-18T21:11:12.168Z,1.93
2018-10-18T21:13:42.386Z,1.70
2018-10-18T21:16:12.672Z,2.23
2018-10-18T21:18:43.792Z,2.00
2018-10-18T21:21:14.065Z,2.00
2018-10-18T21:23:44.295Z,1.70
2018-10-18T21:26:14.407Z,2.03
2018-10-18T21:28:44.720Z,1.87
2018-10-18T21:31:15.533Z,2.00
2018-10-18T21:33:46.058Z,1.90
2018-10-18T21:36:16.319Z,1.93
2018-10-18T21:38:46.809Z,2.00
2018-10-18T21:41:17.369Z,2.73
2018-10-18T21:43:47.563Z,2.50
2018-10-18T21:46:17.732Z,2.70
2018-10-18T21:48:48.059Z,2.97
2018-10-18T21:51:18.334Z,2.50
2018-10-18T21:53:48.695Z,2.40
2018-10-18T21:56:19.113Z,2.50
2018-10-18T21:58:49.625Z,2.73
2018-10-18T22:01:20.938Z,2.70
2018-10-18T22:03:51.266Z,2.30
2018-10-18T22:06:22.394Z,2.47
2018-10-18T22:08:52.997Z,2.17
2018-10-18T22:11:23.288Z,2.27
2018-10-18T22:13:53.751Z,2.37
2018-10-18T22:16:23.686Z,2.20
2018-10-18T22:18:53.865Z,2.50
2018-10-18T22:21:24.337Z,2.37
2018-10-18T22:23:54.464Z,2.27
2018-10-18T22:26:24.582Z,2.40
2018-10-18T22:28:55.578Z,2.50
2018-10-18T22:31:26.970Z,2.73
2018-10-18T22:33:57.633Z,2.80
2018-10-18T22:36:27.621Z,2.90
2018-10-18T22:38:58.010Z,3.03
2018-10-18T22:41:27.874Z,3.10
2018-10-18T22:43:58.202Z,3.10
2018-10-18T22:46:28.264Z,3.47
2018-10-18T22:48:58.506Z,3.47
2018-10-18T22:51:29.271Z,3.90
2018-10-18T22:54:00.538Z,3.57
2018-10-18T22:56:30.677Z,3.43
2018-10-18T22:59:01.786Z,2.77
2018-10-18T23:01:32.034Z,2.93
2018-10-18T23:04:03.576Z,3.07
2018-10-18T23:06:33.580Z,3.43
2018-10-18T23:09:04.821Z,2.70
2018-10-18T23:11:35.539Z,3.47
2018-10-18T23:14:06.347Z,3.63
2018-10-18T23:16:37.125Z,3.47
2018-10-18T23:19:08.152Z,3.10
2018-10-18T23:21:38.477Z,3.07
2018-10-18T23:24:08.626Z,2.90
2018-10-18T23:26:38.978Z,2.80
2018-10-18T23:29:09.261Z,2.90
2018-10-18T23:31:39.822Z,2.90
2018-10-18T23:34:11.380Z,3.00
2018-10-18T23:36:42.513Z,3.10
2018-10-18T23:39:13.656Z,2.90
2018-10-18T23:41:44.495Z,3.00
2018-10-18T23:44:14.917Z,3.30
2018-10-18T23:46:45.765Z,3.40
2018-10-18T23:49:16.427Z,3.23
2018-10-18T23:51:46.783Z,2.60
2018-10-18T23:54:16.909Z,2.90
2018-10-18T23:56:47.039Z,2.77
2018-10-18T23:59:18.141Z,3.17
